createdAt,value
2023-05-01T00:00:22.962Z,100.00
2023-05-01T00:02:49.988Z,100.00
2023-05-01T00:05:17.164Z,100.00
2023-05-01T00:07:46.326Z,100.00
2023-05-01T00:10:13.585Z,100.00
2023-05-01T00:12:42.847Z,100.00
2023-05-01T00:15:10.667Z,100.00
2023-05-01T00:17:37.770Z,100.00
2023-05-01T00:20:15.348Z,100.00
2023-05-01T00:22:44.614Z,100.00
2023-05-01T00:25:11.849Z,100.00
2023-05-01T00:27:38.816Z,100.00
2023-05-01T00:30:07.662Z,100.00
2023-05-01T00:32:34.845Z,100.00
2023-05-01T00:35:02.163Z,100.00
2023-05-01T00:37:35.180Z,100.00
2023-05-01T00:40:02.293Z,100.00
2023-05-01T00:42:42.558Z,100.00
2023-05-01T00:45:10.122Z,100.00
2023-05-01T00:47:40.306Z,100.00
2023-05-01T00:50:08.825Z,100.00
2023-05-01T00:52:36.378Z,100.00
2023-05-01T00:55:05.592Z,100.00
2023-05-01T00:57:33.589Z,100.00
2023-05-01T01:00:00.809Z,100.00
2023-05-01T01:02:28.088Z,100.00
2023-05-01T01:04:55.231Z,100.00
2023-05-01T01:07:25.481Z,100.00
2023-05-01T01:10:13.408Z,100.00
2023-05-01T01:12:59.165Z,100.00
2023-05-01T01:15:43.670Z,100.00
2023-05-01T01:18:33.570Z,100.00
2023-05-01T01:21:18.685Z,100.00
2023-05-01T01:24:14.160Z,100.00
2023-05-01T01:26:53.381Z,100.00
2023-05-01T01:29:36.838Z,100.00
2023-05-01T01:32:33.647Z,100.00
2023-05-01T01:35:18.390Z,100.00
2023-05-01T01:38:16.984Z,100.00
2023-05-01T01:40:58.330Z,100.00
2023-05-01T01:43:27.184Z,100.00
2023-05-01T01:46:03.979Z,100.00
2023-05-01T01:48:38.570Z,100.00
2023-05-01T01:51:18.651Z,100.00
2023-05-01T01:53:50.551Z,100.00
2023-05-01T01:56:20.312Z,100.00
2023-05-01T01:58:48.511Z,100.00
2023-05-01T02:01:17.438Z,100.00
2023-05-01T02:03:46.602Z,100.00
2023-05-01T02:06:16.257Z,100.00
2023-05-01T02:08:44.347Z,100.00
2023-05-01T02:11:14.861Z,100.00
2023-05-01T02:13:42.960Z,100.00
2023-05-01T02:16:11.231Z,100.00
2023-05-01T02:18:39.188Z,100.00
2023-05-01T02:21:07.226Z,100.00
2023-05-01T02:23:34.391Z,100.00
2023-05-01T02:26:04.469Z,100.00
2023-05-01T02:28:32.757Z,100.00
2023-05-01T02:30:59.666Z,100.00
2023-05-01T02:33:26.654Z,100.00
2023-05-01T02:35:53.738Z,100.00
2023-05-01T02:38:20.726Z,100.00
2023-05-01T02:40:52.504Z,100.00
2023-05-01T02:43:23.007Z,100.00
2023-05-01T02:45:52.523Z,100.00
2023-05-01T02:48:24.132Z,100.00
2023-05-01T02:50:52.042Z,100.00
2023-05-01T02:53:19.696Z,100.00
2023-05-01T02:55:46.705Z,100.00
2023-05-01T02:58:20.817Z,100.00
2023-05-01T03:00:50.229Z,100.00
2023-05-01T03:03:17.898Z,100.00
2023-05-01T03:05:44.944Z,100.00
2023-05-01T03:08:12.950Z,100.00
2023-05-01T03:10:42.861Z,100.00
2023-05-01T03:13:11.057Z,100.00
2023-05-01T03:15:38.841Z,100.00
2023-05-01T03:18:06.145Z,100.00
2023-05-01T03:20:33.052Z,100.00
2023-05-01T03:23:00.354Z,100.00
2023-05-01T03:25:27.364Z,100.00
2023-05-01T03:27:55.256Z,100.00
2023-05-01T03:30:22.559Z,100.00
2023-05-01T03:32:49.491Z,100.00
2023-05-01T03:35:16.548Z,100.00
2023-05-01T03:37:43.491Z,100.00
2023-05-01T03:40:11.190Z,100.00
2023-05-01T03:42:38.223Z,100.00
2023-05-01T03:45:05.419Z,100.00
2023-05-01T03:47:32.367Z,100.00
2023-05-01T03:49:59.336Z,100.00
2023-05-01T03:52:26.723Z,100.00
2023-05-01T03:54:53.892Z,100.00
2023-05-01T03:57:27.644Z,100.00
2023-05-01T03:59:55.194Z,100.00
2023-05-01T04:02:22.627Z,100.00
2023-05-01T04:04:49.902Z,100.00
2023-05-01T04:07:16.875Z,100.00
2023-05-01T04:09:44.057Z,100.00
2023-05-01T04:12:10.970Z,100.00
2023-05-01T04:14:37.908Z,100.00
2023-05-01T04:17:04.916Z,100.00
2023-05-01T04:19:31.830Z,100.00
2023-05-01T04:21:58.744Z,100.00
2023-05-01T04:24:25.565Z,100.00
2023-05-01T04:26:52.750Z,100.00
2023-05-01T04:29:19.820Z,100.00
2023-05-01T04:31:46.786Z,100.00
2023-05-01T04:34:13.899Z,100.00
2023-05-01T04:36:40.844Z,100.00
2023-05-01T04:39:07.957Z,100.00
2023-05-01T04:41:34.999Z,100.00
2023-05-01T04:44:01.837Z,100.00
2023-05-01T04:46:28.809Z,100.00
2023-05-01T04:48:55.836Z,100.00
2023-05-01T04:51:22.743Z,100.00
2023-05-01T04:53:49.610Z,100.00
2023-05-01T04:56:16.435Z,100.00
2023-05-01T04:58:43.394Z,100.00
2023-05-01T05:01:10.476Z,100.00
2023-05-01T05:03:37.421Z,100.00
2023-05-01T05:06:04.806Z,100.00
2023-05-01T05:08:31.651Z,100.00
2023-05-01T05:11:02.671Z,100.00
2023-05-01T05:13:29.796Z,100.00
2023-05-01T05:15:56.850Z,100.00
2023-05-01T05:18:23.878Z,100.00
2023-05-01T05:20:50.768Z,100.00
2023-05-01T05:23:17.884Z,100.00
2023-05-01T05:25:44.805Z,100.00
2023-05-01T05:28:11.638Z,100.00
2023-05-01T05:30:38.568Z,100.00
2023-05-01T05:33:08.912Z,100.00
2023-05-01T05:35:35.980Z,100.00
2023-05-01T05:38:03.354Z,100.00
2023-05-01T05:40:30.311Z,100.00
2023-05-01T05:42:57.587Z,100.00
2023-05-01T05:45:24.603Z,100.00
2023-05-01T05:47:51.634Z,100.00
2023-05-01T05:50:18.557Z,100.00
2023-05-01T05:52:45.429Z,100.00
2023-05-01T05:55:12.625Z,97.67
2023-05-01T05:57:39.654Z,92.82
2023-05-01T06:00:10.677Z,91.29
2023-05-01T06:02:37.859Z,89.78
2023-05-01T06:05:05.295Z,85.01
2023-05-01T06:07:32.310Z,82.78
2023-05-01T06:10:05.472Z,81.41
2023-05-01T06:12:34.130Z,80.40
2023-05-01T06:15:03.673Z,75.56
2023-05-01T06:17:30.649Z,69.70
2023-05-01T06:19:58.125Z,72.40
2023-05-01T06:22:25.414Z,72.53
2023-05-01T06:24:52.326Z,71.87
2023-05-01T06:27:21.716Z,71.25
2023-05-01T06:29:48.601Z,68.84
2023-05-01T06:32:15.816Z,72.30
2023-05-01T06:34:42.753Z,75.66
2023-05-01T06:37:09.733Z,75.32
2023-05-01T06:39:36.574Z,74.36
2023-05-01T06:42:03.671Z,75.35
2023-05-01T06:44:32.738Z,71.83
2023-05-01T06:47:01.912Z,67.77
2023-05-01T06:49:29.022Z,63.82
2023-05-01T06:51:56.253Z,62.71
2023-05-01T06:54:23.230Z,57.38
2023-05-01T06:56:50.189Z,50.63
2023-05-01T06:59:17.090Z,48.09
2023-05-01T07:01:44.522Z,54.41
2023-05-01T07:04:11.496Z,47.67
2023-05-01T07:06:38.660Z,47.16
2023-05-01T07:09:05.733Z,50.11
2023-05-01T07:11:33.332Z,55.27
2023-05-01T07:14:01.527Z,54.43
2023-05-01T07:16:28.591Z,59.66
2023-05-01T07:18:55.440Z,61.32
2023-05-01T07:21:22.309Z,54.62
2023-05-01T07:23:49.204Z,47.49
2023-05-01T07:26:16.296Z,52.20
2023-05-01T07:28:43.253Z,55.22
2023-05-01T07:31:10.679Z,51.15
2023-05-01T07:33:37.741Z,47.21
2023-05-01T07:36:04.954Z,45.20
2023-05-01T07:38:31.836Z,40.42
2023-05-01T07:40:58.799Z,39.17
2023-05-01T07:43:25.749Z,40.20
2023-05-01T07:46:00.764Z,40.37
2023-05-01T07:48:28.781Z,41.05
2023-05-01T07:50:57.250Z,41.10
2023-05-01T07:53:24.232Z,46.38
2023-05-01T07:55:51.229Z,46.15
2023-05-01T07:58:18.202Z,42.93
2023-05-01T08:00:45.811Z,40.06
2023-05-01T08:03:13.398Z,37.17
2023-05-01T08:05:41.906Z,35.11
2023-05-01T08:08:09.852Z,34.97
2023-05-01T08:10:36.940Z,32.89
2023-05-01T08:13:03.929Z,33.33
2023-05-01T08:15:30.887Z,32.50
2023-05-01T08:17:57.850Z,32.69
2023-05-01T08:20:25.488Z,32.86
2023-05-01T08:22:52.468Z,33.73
2023-05-01T08:25:19.494Z,33.76
2023-05-01T08:27:46.527Z,31.99
2023-05-01T08:30:13.586Z,30.97
2023-05-01T08:32:40.699Z,31.27
2023-05-01T08:35:07.983Z,32.38
2023-05-01T08:37:35.401Z,33.68
2023-05-01T08:40:08.489Z,32.27
2023-05-01T08:42:39.223Z,32.75
2023-05-01T08:45:10.384Z,32.60
2023-05-01T08:47:38.750Z,32.17
2023-05-01T08:50:14.333Z,33.02
2023-05-01T08:52:43.403Z,31.38
2023-05-01T08:55:21.228Z,30.70
2023-05-01T08:57:49.145Z,30.88
2023-05-01T09:00:20.915Z,30.21
2023-05-01T09:02:49.778Z,32.35
2023-05-01T09:05:18.698Z,31.55
2023-05-01T09:07:46.844Z,31.39
2023-05-01T09:10:16.437Z,31.60
2023-05-01T09:12:47.285Z,32.24
2023-05-01T09:15:14.665Z,32.22
2023-05-01T09:17:42.857Z,32.55
2023-05-01T09:20:11.010Z,31.96
2023-05-01T09:22:38.132Z,33.40
2023-05-01T09:25:05.421Z,33.65
2023-05-01T09:27:37.059Z,33.94
2023-05-01T09:30:06.864Z,35.13
2023-05-01T09:32:33.913Z,35.05
2023-05-01T09:35:14.729Z,35.33
2023-05-01T09:37:42.158Z,35.86
2023-05-01T09:40:10.309Z,35.89
2023-05-01T09:42:39.718Z,36.09
2023-05-01T09:45:17.448Z,36.87
2023-05-01T09:47:45.541Z,36.33
2023-05-01T09:50:32.788Z,35.75
2023-05-01T09:53:05.266Z,35.98
2023-05-01T09:55:33.267Z,35.84
2023-05-01T09:58:00.210Z,36.09
2023-05-01T10:00:27.693Z,36.30
2023-05-01T10:02:55.742Z,36.32
2023-05-01T10:05:23.456Z,37.38
2023-05-01T10:08:02.574Z,37.01
2023-05-01T10:10:30.122Z,36.25
2023-05-01T10:13:16.670Z,36.95
2023-05-01T10:15:46.869Z,36.18
2023-05-01T10:18:14.950Z,37.07
2023-05-01T10:20:42.038Z,37.51
2023-05-01T10:23:09.087Z,38.09
2023-05-01T10:25:37.624Z,38.36
2023-05-01T10:28:05.668Z,38.28
2023-05-01T10:30:33.424Z,39.23
2023-05-01T10:33:00.561Z,37.88
2023-05-01T10:35:34.601Z,37.70
2023-05-01T10:38:04.982Z,38.19
2023-05-01T10:40:41.263Z,38.22
2023-05-01T10:43:28.033Z,37.13
2023-05-01T10:46:17.133Z,37.70
2023-05-01T10:48:47.002Z,36.20
2023-05-01T10:51:20.707Z,36.66
2023-05-01T10:54:13.424Z,37.20
2023-05-01T10:56:43.483Z,35.82
2023-05-01T10:59:11.800Z,36.81
2023-05-01T11:01:43.546Z,35.73
2023-05-01T11:04:19.454Z,35.69
2023-05-01T11:06:58.880Z,35.83
2023-05-01T11:09:40.536Z,35.56
2023-05-01T11:12:09.193Z,36.47
2023-05-01T11:14:54.856Z,36.83
2023-05-01T11:17:40.222Z,36.47
2023-05-01T11:20:07.951Z,35.78
2023-05-01T11:22:36.737Z,35.23
2023-05-01T11:25:05.248Z,36.21
2023-05-01T11:27:32.463Z,35.52
2023-05-01T11:30:00.137Z,34.78
2023-05-01T11:32:33.117Z,33.89
2023-05-01T11:35:00.428Z,34.00
2023-05-01T11:37:41.905Z,33.50
2023-05-01T11:40:29.026Z,34.52
2023-05-01T11:43:09.094Z,34.13
2023-05-01T11:45:37.605Z,34.91
2023-05-01T11:48:05.304Z,34.58
2023-05-01T11:50:39.151Z,33.89
2023-05-01T11:53:16.015Z,34.35
2023-05-01T11:55:43.174Z,33.90
2023-05-01T11:58:10.295Z,34.66
2023-05-01T12:00:39.798Z,34.80
2023-05-01T12:03:12.633Z,34.82
2023-05-01T12:05:43.125Z,35.04
2023-05-01T12:08:21.086Z,34.96
2023-05-01T12:10:57.327Z,35.74
2023-05-01T12:13:25.590Z,36.42
2023-05-01T12:15:54.699Z,35.17
2023-05-01T12:18:22.317Z,35.21
2023-05-01T12:20:52.373Z,35.24
2023-05-01T12:23:30.010Z,34.92
2023-05-01T12:25:57.095Z,35.87
2023-05-01T12:28:24.441Z,34.68
2023-05-01T12:30:51.302Z,34.31
2023-05-01T12:33:22.572Z,33.06
2023-05-01T12:35:51.011Z,33.00
2023-05-01T12:38:20.856Z,33.48
2023-05-01T12:40:59.851Z,33.89
2023-05-01T12:43:35.214Z,33.93
2023-05-01T12:46:03.862Z,33.84
2023-05-01T12:48:31.966Z,34.24
2023-05-01T12:50:59.482Z,34.26
2023-05-01T12:53:27.952Z,34.12
2023-05-01T12:55:58.093Z,33.57
2023-05-01T12:58:45.758Z,34.42
2023-05-01T13:01:13.405Z,34.49
2023-05-01T13:03:45.126Z,34.17
2023-05-01T13:06:12.330Z,33.11
2023-05-01T13:08:40.623Z,33.84
2023-05-01T13:11:13.418Z,33.28
2023-05-01T13:13:41.095Z,33.47
2023-05-01T13:16:12.747Z,33.74
2023-05-01T13:18:58.256Z,33.86
2023-05-01T13:21:27.022Z,33.54
2023-05-01T13:23:55.824Z,34.77
2023-05-01T13:26:31.709Z,33.60
2023-05-01T13:29:02.082Z,34.07
2023-05-01T13:31:30.412Z,34.69
2023-05-01T13:33:59.360Z,33.95
2023-05-01T13:36:29.120Z,33.37
2023-05-01T13:38:57.222Z,33.07
2023-05-01T13:41:26.146Z,33.05
2023-05-01T13:43:54.595Z,32.51
2023-05-01T13:46:23.500Z,34.20
2023-05-01T13:48:51.014Z,32.33
2023-05-01T13:51:25.498Z,32.89
2023-05-01T13:53:54.239Z,32.78
2023-05-01T13:56:22.258Z,33.49
2023-05-01T13:58:50.821Z,33.68
2023-05-01T14:01:20.987Z,34.19
2023-05-01T14:03:49.741Z,33.99
2023-05-01T14:06:21.191Z,33.18
2023-05-01T14:08:49.413Z,32.22
2023-05-01T14:11:16.454Z,32.26
2023-05-01T14:13:47.939Z,32.71
2023-05-01T14:16:28.458Z,32.89
2023-05-01T14:18:57.705Z,32.43
2023-05-01T14:21:28.236Z,33.41
2023-05-01T14:23:57.278Z,33.57
2023-05-01T14:26:24.993Z,33.98
2023-05-01T14:28:52.359Z,33.54
2023-05-01T14:31:27.467Z,34.21
2023-05-01T14:34:00.843Z,33.74
2023-05-01T14:36:31.296Z,33.96
2023-05-01T14:38:59.529Z,33.11
2023-05-01T14:41:27.348Z,33.82
2023-05-01T14:43:54.403Z,34.15
2023-05-01T14:46:47.003Z,33.54
2023-05-01T14:49:22.473Z,34.31
2023-05-01T14:51:49.640Z,34.02
2023-05-01T14:54:17.119Z,33.83
2023-05-01T14:56:45.256Z,33.83
2023-05-01T14:59:12.753Z,34.16
2023-05-01T15:01:40.662Z,33.55
2023-05-01T15:04:08.041Z,33.71
2023-05-01T15:06:35.261Z,34.08
2023-05-01T15:09:04.781Z,34.01
2023-05-01T15:11:32.009Z,34.73
2023-05-01T15:13:58.913Z,34.46
2023-05-01T15:16:25.928Z,34.75
2023-05-01T15:18:52.851Z,34.60
2023-05-01T15:21:19.904Z,34.52
2023-05-01T15:23:46.898Z,34.97
2023-05-01T15:26:14.508Z,35.14
2023-05-01T15:28:41.602Z,35.57
2023-05-01T15:31:08.688Z,36.07
2023-05-01T15:33:35.701Z,35.24
2023-05-01T15:36:02.701Z,35.21
2023-05-01T15:38:30.394Z,35.54
2023-05-01T15:40:57.420Z,35.41
2023-05-01T15:43:24.404Z,35.59
2023-05-01T15:45:51.847Z,36.37
2023-05-01T15:48:19.410Z,36.37
2023-05-01T15:50:48.851Z,36.17
2023-05-01T15:53:17.408Z,36.15
2023-05-01T15:55:44.487Z,35.97
2023-05-01T15:58:11.980Z,36.21
2023-05-01T16:00:40.000Z,37.02
2023-05-01T16:03:08.656Z,37.17
2023-05-01T16:05:37.193Z,36.99
2023-05-01T16:08:06.891Z,37.66
2023-05-01T16:10:37.471Z,37.51
2023-05-01T16:13:08.550Z,38.25
2023-05-01T16:15:37.117Z,38.55
2023-05-01T16:18:05.288Z,38.92
2023-05-01T16:20:42.813Z,39.36
2023-05-01T16:23:10.057Z,39.79
2023-05-01T16:25:36.972Z,39.61
2023-05-01T16:28:07.539Z,39.12
2023-05-01T16:30:34.722Z,39.18
2023-05-01T16:33:03.543Z,38.92
2023-05-01T16:35:30.709Z,39.89
2023-05-01T16:37:59.835Z,39.51
2023-05-01T16:40:26.957Z,39.71
2023-05-01T16:42:54.987Z,39.95
2023-05-01T16:45:22.345Z,40.18
2023-05-01T16:47:49.333Z,40.84
2023-05-01T16:50:17.309Z,41.74
2023-05-01T16:52:44.468Z,41.11
2023-05-01T16:55:11.798Z,41.76
2023-05-01T16:57:38.906Z,42.36
2023-05-01T17:00:09.002Z,42.71
2023-05-01T17:02:36.535Z,43.07
2023-05-01T17:05:03.848Z,43.83
2023-05-01T17:07:30.835Z,43.91
2023-05-01T17:09:58.084Z,44.24
2023-05-01T17:12:26.048Z,44.65
2023-05-01T17:14:54.048Z,44.68
2023-05-01T17:17:21.830Z,45.57
2023-05-01T17:19:49.149Z,44.81
2023-05-01T17:22:16.240Z,45.40
2023-05-01T17:24:43.143Z,45.78
2023-05-01T17:27:10.212Z,46.02
2023-05-01T17:29:37.158Z,46.60
2023-05-01T17:32:04.795Z,49.73
2023-05-01T17:34:31.853Z,48.77
2023-05-01T17:36:58.760Z,48.12
2023-05-01T17:39:27.814Z,49.19
2023-05-01T17:41:54.871Z,49.20
2023-05-01T17:44:21.758Z,49.38
2023-05-01T17:46:49.100Z,54.25
2023-05-01T17:49:16.476Z,54.89
2023-05-01T17:51:45.479Z,56.53
2023-05-01T17:54:12.569Z,56.10
2023-05-01T17:56:39.591Z,57.26
2023-05-01T17:59:06.520Z,57.92
2023-05-01T18:01:33.993Z,57.03
2023-05-01T18:04:01.084Z,57.23
2023-05-01T18:06:28.285Z,59.45
2023-05-01T18:08:55.259Z,59.88
2023-05-01T18:11:22.303Z,60.76
2023-05-01T18:13:49.277Z,62.52
2023-05-01T18:16:16.455Z,61.65
2023-05-01T18:18:43.522Z,62.73
2023-05-01T18:21:10.532Z,64.13
2023-05-01T18:23:37.434Z,64.34
2023-05-01T18:26:04.343Z,64.36
2023-05-01T18:28:31.774Z,64.20
2023-05-01T18:30:58.904Z,64.45
2023-05-01T18:33:25.940Z,63.89
2023-05-01T18:35:53.359Z,64.14
2023-05-01T18:38:20.321Z,65.45
2023-05-01T18:40:48.085Z,66.34
2023-05-01T18:43:15.973Z,66.08
2023-05-01T18:45:42.887Z,70.54
2023-05-01T18:48:10.006Z,67.70
2023-05-01T18:50:36.990Z,69.17
2023-05-01T18:53:03.918Z,69.90
2023-05-01T18:55:31.188Z,68.30
2023-05-01T18:57:58.394Z,68.91
2023-05-01T19:00:26.726Z,69.52
2023-05-01T19:02:53.734Z,69.18
2023-05-01T19:05:22.817Z,68.61
2023-05-01T19:07:50.323Z,68.21
2023-05-01T19:10:17.898Z,68.49
2023-05-01T19:12:44.784Z,69.18
2023-05-01T19:15:11.942Z,70.39
2023-05-01T19:17:39.669Z,72.80
2023-05-01T19:20:07.432Z,75.16
2023-05-01T19:22:34.393Z,76.56
2023-05-01T19:25:02.463Z,78.51
2023-05-01T19:27:29.467Z,80.79
2023-05-01T19:29:59.490Z,82.00
2023-05-01T19:32:28.821Z,80.97
2023-05-01T19:34:56.923Z,81.58
2023-05-01T19:37:24.160Z,82.94
2023-05-01T19:39:51.186Z,83.81
2023-05-01T19:42:18.191Z,86.55
2023-05-01T19:44:46.385Z,88.25
2023-05-01T19:47:13.345Z,88.17
2023-05-01T19:49:40.449Z,87.00
2023-05-01T19:52:07.467Z,85.97
2023-05-01T19:54:34.520Z,88.92
2023-05-01T19:57:02.453Z,86.66
2023-05-01T19:59:30.818Z,84.82
2023-05-01T20:01:59.600Z,85.72
2023-05-01T20:04:28.170Z,86.56
2023-05-01T20:06:55.207Z,85.59
2023-05-01T20:09:22.168Z,88.16
2023-05-01T20:11:49.092Z,89.57
2023-05-01T20:14:16.536Z,87.72
2023-05-01T20:16:43.693Z,88.51
2023-05-01T20:19:10.970Z,89.98
2023-05-01T20:21:38.015Z,89.38
2023-05-01T20:24:05.030Z,91.10
2023-05-01T20:26:31.976Z,92.90
2023-05-01T20:28:59.096Z,93.86
2023-05-01T20:31:26.020Z,93.52
2023-05-01T20:33:52.931Z,94.77
2023-05-01T20:36:20.498Z,95.86
2023-05-01T20:38:48.742Z,96.86
2023-05-01T20:41:15.685Z,97.41
2023-05-01T20:43:42.622Z,97.50
2023-05-01T20:46:09.536Z,99.11
2023-05-01T20:48:36.634Z,99.60
2023-05-01T20:51:04.956Z,99.17
2023-05-01T20:53:32.059Z,99.34
2023-05-01T20:55:59.095Z,99.66
2023-05-01T20:58:26.184Z,98.54
2023-05-01T21:00:55.306Z,100.00
2023-05-01T21:03:22.559Z,100.00
2023-05-01T21:05:49.741Z,100.00
2023-05-01T21:08:16.937Z,99.79
2023-05-01T21:10:43.813Z,98.77
2023-05-01T21:13:10.855Z,100.00
2023-05-01T21:15:41.646Z,100.00
2023-05-01T21:18:12.674Z,100.00
2023-05-01T21:20:39.844Z,100.00
2023-05-01T21:23:06.760Z,100.00
2023-05-01T21:25:33.959Z,100.00
2023-05-01T21:28:02.363Z,100.00
2023-05-01T21:30:36.786Z,100.00
2023-05-01T21:33:12.126Z,100.00
2023-05-01T21:35:43.182Z,100.00
2023-05-01T21:38:10.475Z,100.00
2023-05-01T21:40:42.171Z,100.00
2023-05-01T21:43:09.661Z,100.00
2023-05-01T21:45:40.727Z,100.00
2023-05-01T21:48:09.350Z,100.00
2023-05-01T21:50:38.343Z,100.00
2023-05-01T21:53:07.181Z,100.00
2023-05-01T21:55:34.538Z,100.00
2023-05-01T21:58:02.422Z,100.00
2023-05-01T22:00:30.321Z,100.00
2023-05-01T22:02:57.683Z,100.00
2023-05-01T22:05:24.791Z,100.00
2023-05-01T22:07:53.054Z,100.00
2023-05-01T22:10:21.215Z,100.00
2023-05-01T22:12:51.151Z,100.00
2023-05-01T22:15:18.169Z,100.00
2023-05-01T22:17:45.511Z,100.00
2023-05-01T22:20:13.066Z,100.00
2023-05-01T22:22:41.462Z,100.00
2023-05-01T22:25:09.600Z,100.00
2023-05-01T22:27:36.811Z,100.00
2023-05-01T22:30:05.825Z,100.00
2023-05-01T22:32:32.946Z,100.00
2023-05-01T22:34:59.966Z,100.00
2023-05-01T22:37:26.956Z,100.00
2023-05-01T22:39:54.273Z,100.00
2023-05-01T22:42:21.894Z,100.00
2023-05-01T22:44:49.236Z,100.00
2023-05-01T22:47:16.336Z,100.00
2023-05-01T22:49:43.226Z,100.00
2023-05-01T22:52:10.115Z,100.00
2023-05-01T22:54:37.172Z,100.00
2023-05-01T22:57:04.147Z,100.00
2023-05-01T22:59:31.509Z,100.00
2023-05-01T23:01:58.500Z,100.00
2023-05-01T23:04:25.749Z,100.00
2023-05-01T23:06:52.979Z,100.00
2023-05-01T23:09:19.836Z,100.00
2023-05-01T23:11:47.951Z,100.00
2023-05-01T23:14:18.746Z,100.00
2023-05-01T23:16:45.926Z,100.00
2023-05-01T23:19:24.273Z,100.00
2023-05-01T23:22:08.855Z,100.00
2023-05-01T23:24:50.697Z,100.00
2023-05-01T23:27:18.360Z,100.00
2023-05-01T23:29:59.785Z,100.00
2023-05-01T23:32:31.122Z,100.00
2023-05-01T23:35:14.121Z,100.00
2023-05-01T23:37:41.101Z,100.00
2023-05-01T23:40:09.754Z,100.00
2023-05-01T23:42:38.405Z,100.00
2023-05-01T23:45:06.872Z,100.00
2023-05-01T23:47:34.318Z,100.00
2023-05-01T23:50:02.192Z,100.00
2023-05-01T23:52:29.687Z,100.00
2023-05-01T23:54:57.084Z,100.00
2023-05-01T23:57:24.159Z,100.00
2023-05-01T23:59:51.088Z,100.00
